sensor_id;sensor_type;location;lat;lon;timestamp;P1;durP1;ratioP1;P2;durP2;ratioP2
68993;SDS011;56054;50.968;5.816;2023-01-13T00:00:10;2.13;;;0.40;;
68993;SDS011;56054;50.968;5.816;2023-01-13T00:03:18;0.40;;;0.30;;
68993;SDS011;56054;50.968;5.816;2023-01-13T00:06:25;0.70;;;0.40;;
68993;SDS011;56054;50.968;5.816;2023-01-13T00:09:33;3.37;;;0.47;;
68993;SDS011;56054;50.968;5.816;2023-01-13T00:12:40;2.03;;;0.30;;
68993;SDS011;56054;50.968;5.816;2023-01-13T00:15:54;1.20;;;0.43;;
68993;SDS011;56054;50.968;5.816;2023-01-13T00:19:08;2.80;;;0.40;;
68993;SDS011;56054;50.968;5.816;2023-01-13T00:22:15;4.30;;;0.53;;
68993;SDS011;56054;50.968;5.816;2023-01-13T00:25:29;2.33;;;0.40;;
68993;SDS011;56054;50.968;5.816;2023-01-13T00:28:36;2.43;;;0.50;;
68993;SDS011;56054;50.968;5.816;2023-01-13T00:31:43;6.87;;;0.50;;
68993;SDS011;56054;50.968;5.816;2023-01-13T00:34:51;4.43;;;0.60;;
68993;SDS011;56054;50.968;5.816;2023-01-13T00:37:58;3.27;;;0.40;;
68993;SDS011;56054;50.968;5.816;2023-01-13T00:41:06;4.27;;;0.60;;
68993;SDS011;56054;50.968;5.816;2023-01-13T00:44:15;2.87;;;0.63;;
68993;SDS011;56054;50.968;5.816;2023-01-13T00:47:22;2.63;;;0.63;;
68993;SDS011;56054;50.968;5.816;2023-01-13T00:50:29;1.90;;;0.30;;
68993;SDS011;56054;50.968;5.816;2023-01-13T00:53:37;5.30;;;0.80;;
68993;SDS011;56054;50.968;5.816;2023-01-13T00:56:46;4.27;;;0.70;;
68993;SDS011;56054;50.968;5.816;2023-01-13T00:59:53;6.07;;;0.60;;
68993;SDS011;56054;50.968;5.816;2023-01-13T01:03:01;3.33;;;0.60;;
68993;SDS011;56054;50.968;5.816;2023-01-13T01:06:16;4.60;;;0.43;;
68993;SDS011;56054;50.968;5.816;2023-01-13T01:09:24;2.53;;;0.70;;
68993;SDS011;56054;50.968;5.816;2023-01-13T01:12:31;2.83;;;0.57;;
68993;SDS011;56054;50.968;5.816;2023-01-13T01:15:42;3.40;;;0.80;;
68993;SDS011;56054;50.968;5.816;2023-01-13T01:18:50;5.67;;;1.03;;
68993;SDS011;56054;50.968;5.816;2023-01-13T01:21:58;2.27;;;0.50;;
68993;SDS011;56054;50.968;5.816;2023-01-13T01:25:06;3.27;;;0.50;;
68993;SDS011;56054;50.968;5.816;2023-01-13T01:28:14;3.23;;;0.73;;
68993;SDS011;56054;50.968;5.816;2023-01-13T01:31:28;6.87;;;0.73;;
68993;SDS011;56054;50.968;5.816;2023-01-13T01:34:36;3.33;;;0.80;;
68993;SDS011;56054;50.968;5.816;2023-01-13T01:37:43;3.37;;;0.40;;
68993;SDS011;56054;50.968;5.816;2023-01-13T01:40:53;4.67;;;0.70;;
68993;SDS011;56054;50.968;5.816;2023-01-13T01:44:47;3.63;;;0.57;;
68993;SDS011;56054;50.968;5.816;2023-01-13T01:47:57;5.00;;;1.13;;
68993;SDS011;56054;50.968;5.816;2023-01-13T01:51:08;7.27;;;0.50;;
68993;SDS011;56054;50.968;5.816;2023-01-13T01:54:19;8.83;;;2.20;;
68993;SDS011;56054;50.968;5.816;2023-01-13T01:57:42;4.17;;;0.57;;
68993;SDS011;56054;50.968;5.816;2023-01-13T02:00:55;7.20;;;0.70;;
68993;SDS011;56054;50.968;5.816;2023-01-13T02:04:04;5.93;;;1.13;;
68993;SDS011;56054;50.968;5.816;2023-01-13T02:07:18;7.47;;;0.93;;
68993;SDS011;56054;50.968;5.816;2023-01-13T02:10:28;4.23;;;0.90;;
68993;SDS011;56054;50.968;5.816;2023-01-13T02:13:36;2.07;;;0.73;;
68993;SDS011;56054;50.968;5.816;2023-01-13T02:17:09;8.43;;;1.00;;
68993;SDS011;56054;50.968;5.816;2023-01-13T02:30:46;9.97;;;0.83;;
68993;SDS011;56054;50.968;5.816;2023-01-13T02:34:06;7.40;;;0.80;;
68993;SDS011;56054;50.968;5.816;2023-01-13T02:37:30;2.17;;;0.70;;
68993;SDS011;56054;50.968;5.816;2023-01-13T02:40:46;8.27;;;1.03;;
68993;SDS011;56054;50.968;5.816;2023-01-13T02:43:59;4.33;;;0.80;;
68993;SDS011;56054;50.968;5.816;2023-01-13T02:47:12;2.53;;;0.60;;
68993;SDS011;56054;50.968;5.816;2023-01-13T02:50:37;7.97;;;0.70;;
68993;SDS011;56054;50.968;5.816;2023-01-13T02:53:52;3.73;;;0.63;;
68993;SDS011;56054;50.968;5.816;2023-01-13T02:57:06;7.57;;;0.90;;
68993;SDS011;56054;50.968;5.816;2023-01-13T03:00:15;4.20;;;0.80;;
68993;SDS011;56054;50.968;5.816;2023-01-13T03:03:24;5.80;;;0.90;;
68993;SDS011;56054;50.968;5.816;2023-01-13T03:10:01;6.07;;;0.80;;
68993;SDS011;56054;50.968;5.816;2023-01-13T03:16:39;7.90;;;0.97;;
68993;SDS011;56054;50.968;5.816;2023-01-13T03:20:27;7.27;;;1.37;;
68993;SDS011;56054;50.968;5.816;2023-01-13T03:23:49;10.50;;;1.30;;
68993;SDS011;56054;50.968;5.816;2023-01-13T03:27:04;7.03;;;1.17;;
68993;SDS011;56054;50.968;5.816;2023-01-13T03:33:55;10.73;;;0.90;;
68993;SDS011;56054;50.968;5.816;2023-01-13T03:37:06;12.97;;;1.83;;
68993;SDS011;56054;50.968;5.816;2023-01-13T03:40:15;7.07;;;1.27;;
68993;SDS011;56054;50.968;5.816;2023-01-13T03:43:28;9.93;;;1.20;;
68993;SDS011;56054;50.968;5.816;2023-01-13T03:46:43;12.07;;;1.80;;
68993;SDS011;56054;50.968;5.816;2023-01-13T03:50:04;13.37;;;1.30;;
68993;SDS011;56054;50.968;5.816;2023-01-13T03:53:32;13.17;;;1.13;;
68993;SDS011;56054;50.968;5.816;2023-01-13T03:56:45;9.20;;;1.53;;
68993;SDS011;56054;50.968;5.816;2023-01-13T03:59:57;13.17;;;1.50;;
68993;SDS011;56054;50.968;5.816;2023-01-13T04:03:14;19.40;;;2.20;;
68993;SDS011;56054;50.968;5.816;2023-01-13T04:06:36;13.17;;;1.30;;
68993;SDS011;56054;50.968;5.816;2023-01-13T04:09:55;10.63;;;1.60;;
68993;SDS011;56054;50.968;5.816;2023-01-13T04:13:05;15.37;;;1.63;;
68993;SDS011;56054;50.968;5.816;2023-01-13T04:16:16;8.73;;;1.37;;
68993;SDS011;56054;50.968;5.816;2023-01-13T04:19:23;14.90;;;1.60;;
68993;SDS011;56054;50.968;5.816;2023-01-13T04:22:30;14.83;;;1.70;;
68993;SDS011;56054;50.968;5.816;2023-01-13T04:25:37;8.70;;;1.63;;
68993;SDS011;56054;50.968;5.816;2023-01-13T04:28:44;8.17;;;1.13;;
68993;SDS011;56054;50.968;5.816;2023-01-13T04:31:52;9.07;;;1.13;;
68993;SDS011;56054;50.968;5.816;2023-01-13T04:34:59;13.93;;;1.60;;
68993;SDS011;56054;50.968;5.816;2023-01-13T04:38:07;9.80;;;1.37;;
68993;SDS011;56054;50.968;5.816;2023-01-13T04:41:16;11.93;;;1.70;;
68993;SDS011;56054;50.968;5.816;2023-01-13T04:44:23;10.33;;;1.50;;
68993;SDS011;56054;50.968;5.816;2023-01-13T04:47:31;14.27;;;1.93;;
68993;SDS011;56054;50.968;5.816;2023-01-13T04:50:42;10.50;;;1.93;;
68993;SDS011;56054;50.968;5.816;2023-01-13T04:53:49;16.07;;;1.97;;
68993;SDS011;56054;50.968;5.816;2023-01-13T04:56:56;7.93;;;1.00;;
68993;SDS011;56054;50.968;5.816;2023-01-13T05:00:04;11.40;;;1.13;;
68993;SDS011;56054;50.968;5.816;2023-01-13T05:03:12;8.23;;;1.23;;
68993;SDS011;56054;50.968;5.816;2023-01-13T05:06:19;9.37;;;1.13;;
68993;SDS011;56054;50.968;5.816;2023-01-13T05:09:26;12.37;;;1.37;;
68993;SDS011;56054;50.968;5.816;2023-01-13T05:12:33;13.70;;;1.70;;
68993;SDS011;56054;50.968;5.816;2023-01-13T05:15:40;11.40;;;1.40;;
68993;SDS011;56054;50.968;5.816;2023-01-13T05:18:47;9.67;;;1.20;;
68993;SDS011;56054;50.968;5.816;2023-01-13T05:21:54;8.43;;;1.33;;
68993;SDS011;56054;50.968;5.816;2023-01-13T05:25:09;10.07;;;1.57;;
68993;SDS011;56054;50.968;5.816;2023-01-13T05:28:17;5.97;;;1.57;;
68993;SDS011;56054;50.968;5.816;2023-01-13T05:31:24;7.17;;;0.90;;
68993;SDS011;56054;50.968;5.816;2023-01-13T05:34:31;8.13;;;1.07;;
68993;SDS011;56054;50.968;5.816;2023-01-13T05:37:38;13.37;;;1.07;;
68993;SDS011;56054;50.968;5.816;2023-01-13T05:40:45;8.77;;;1.07;;
68993;SDS011;56054;50.968;5.816;2023-01-13T05:43:52;9.03;;;1.17;;
68993;SDS011;56054;50.968;5.816;2023-01-13T05:46:59;10.77;;;1.17;;
68993;SDS011;56054;50.968;5.816;2023-01-13T05:50:06;11.50;;;1.40;;
68993;SDS011;56054;50.968;5.816;2023-01-13T05:53:15;8.53;;;1.17;;
68993;SDS011;56054;50.968;5.816;2023-01-13T05:56:23;8.13;;;1.20;;
68993;SDS011;56054;50.968;5.816;2023-01-13T05:59:31;7.47;;;0.93;;
68993;SDS011;56054;50.968;5.816;2023-01-13T06:02:38;12.33;;;1.20;;
68993;SDS011;56054;50.968;5.816;2023-01-13T06:05:52;7.83;;;1.00;;
68993;SDS011;56054;50.968;5.816;2023-01-13T06:08:59;11.03;;;1.20;;
68993;SDS011;56054;50.968;5.816;2023-01-13T06:12:07;8.47;;;1.07;;
68993;SDS011;56054;50.968;5.816;2023-01-13T06:15:17;9.90;;;1.20;;
68993;SDS011;56054;50.968;5.816;2023-01-13T06:18:26;4.07;;;0.93;;
68993;SDS011;56054;50.968;5.816;2023-01-13T06:21:34;7.37;;;0.90;;
68993;SDS011;56054;50.968;5.816;2023-01-13T06:24:41;7.50;;;1.27;;
68993;SDS011;56054;50.968;5.816;2023-01-13T06:27:57;3.50;;;0.50;;
68993;SDS011;56054;50.968;5.816;2023-01-13T06:31:06;3.70;;;0.80;;
68993;SDS011;56054;50.968;5.816;2023-01-13T06:34:16;7.60;;;0.90;;
68993;SDS011;56054;50.968;5.816;2023-01-13T06:37:23;8.30;;;1.10;;
68993;SDS011;56054;50.968;5.816;2023-01-13T06:40:31;5.93;;;1.03;;
68993;SDS011;56054;50.968;5.816;2023-01-13T06:43:38;6.30;;;1.27;;
68993;SDS011;56054;50.968;5.816;2023-01-13T06:46:45;7.47;;;0.90;;
68993;SDS011;56054;50.968;5.816;2023-01-13T06:49:53;10.97;;;1.10;;
68993;SDS011;56054;50.968;5.816;2023-01-13T06:53:02;5.70;;;0.83;;
68993;SDS011;56054;50.968;5.816;2023-01-13T06:56:09;3.43;;;0.87;;
68993;SDS011;56054;50.968;5.816;2023-01-13T06:59:16;6.80;;;0.83;;
68993;SDS011;56054;50.968;5.816;2023-01-13T07:02:23;9.77;;;0.80;;
68993;SDS011;56054;50.968;5.816;2023-01-13T07:05:31;8.73;;;1.20;;
68993;SDS011;56054;50.968;5.816;2023-01-13T07:08:38;9.07;;;1.10;;
68993;SDS011;56054;50.968;5.816;2023-01-13T07:11:46;2.00;;;0.77;;
68993;SDS011;56054;50.968;5.816;2023-01-13T07:14:53;8.90;;;0.90;;
68993;SDS011;56054;50.968;5.816;2023-01-13T07:18:01;6.03;;;1.60;;
68993;SDS011;56054;50.968;5.816;2023-01-13T07:21:10;8.70;;;1.00;;
68993;SDS011;56054;50.968;5.816;2023-01-13T07:24:17;2.80;;;1.00;;
68993;SDS011;56054;50.968;5.816;2023-01-13T07:27:26;10.27;;;1.10;;
68993;SDS011;56054;50.968;5.816;2023-01-13T07:30:33;5.67;;;1.10;;
68993;SDS011;56054;50.968;5.816;2023-01-13T07:33:41;8.57;;;1.00;;
68993;SDS011;56054;50.968;5.816;2023-01-13T07:36:48;6.03;;;1.03;;
68993;SDS011;56054;50.968;5.816;2023-01-13T07:39:56;3.67;;;0.90;;
68993;SDS011;56054;50.968;5.816;2023-01-13T07:43:03;6.03;;;0.93;;
68993;SDS011;56054;50.968;5.816;2023-01-13T07:46:11;5.03;;;1.00;;
68993;SDS011;56054;50.968;5.816;2023-01-13T07:49:18;14.00;;;1.20;;
68993;SDS011;56054;50.968;5.816;2023-01-13T07:52:26;10.07;;;1.70;;
68993;SDS011;56054;50.968;5.816;2023-01-13T07:55:33;12.13;;;1.83;;
68993;SDS011;56054;50.968;5.816;2023-01-13T07:58:42;14.07;;;1.50;;
68993;SDS011;56054;50.968;5.816;2023-01-13T08:01:55;9.17;;;1.30;;
68993;SDS011;56054;50.968;5.816;2023-01-13T08:05:21;7.97;;;1.10;;
68993;SDS011;56054;50.968;5.816;2023-01-13T08:08:28;9.07;;;1.40;;
68993;SDS011;56054;50.968;5.816;2023-01-13T08:11:36;10.90;;;2.30;;
68993;SDS011;56054;50.968;5.816;2023-01-13T08:14:43;11.77;;;1.60;;
68993;SDS011;56054;50.968;5.816;2023-01-13T08:17:56;9.67;;;1.53;;
68993;SDS011;56054;50.968;5.816;2023-01-13T08:21:05;10.53;;;2.53;;
68993;SDS011;56054;50.968;5.816;2023-01-13T08:24:17;9.50;;;2.00;;
68993;SDS011;56054;50.968;5.816;2023-01-13T08:27:24;17.50;;;1.70;;
68993;SDS011;56054;50.968;5.816;2023-01-13T08:30:31;12.40;;;2.10;;
68993;SDS011;56054;50.968;5.816;2023-01-13T08:33:38;14.37;;;2.03;;
68993;SDS011;56054;50.968;5.816;2023-01-13T08:36:48;18.63;;;1.50;;
68993;SDS011;56054;50.968;5.816;2023-01-13T08:39:56;12.87;;;1.20;;
68993;SDS011;56054;50.968;5.816;2023-01-13T08:43:03;10.27;;;1.50;;
68993;SDS011;56054;50.968;5.816;2023-01-13T08:46:10;9.17;;;1.30;;
68993;SDS011;56054;50.968;5.816;2023-01-13T08:49:17;17.00;;;1.70;;
68993;SDS011;56054;50.968;5.816;2023-01-13T08:52:24;25.87;;;2.70;;
68993;SDS011;56054;50.968;5.816;2023-01-13T08:55:31;10.50;;;1.60;;
68993;SDS011;56054;50.968;5.816;2023-01-13T08:58:38;17.07;;;2.57;;
68993;SDS011;56054;50.968;5.816;2023-01-13T09:01:46;16.80;;;2.00;;
68993;SDS011;56054;50.968;5.816;2023-01-13T09:04:53;12.13;;;2.03;;
68993;SDS011;56054;50.968;5.816;2023-01-13T09:08:00;11.90;;;1.63;;
68993;SDS011;56054;50.968;5.816;2023-01-13T09:11:16;9.20;;;1.40;;
68993;SDS011;56054;50.968;5.816;2023-01-13T09:14:28;21.43;;;2.70;;
68993;SDS011;56054;50.968;5.816;2023-01-13T09:17:37;12.23;;;1.87;;
68993;SDS011;56054;50.968;5.816;2023-01-13T09:20:46;14.40;;;1.83;;
68993;SDS011;56054;50.968;5.816;2023-01-13T09:23:53;13.30;;;1.77;;
68993;SDS011;56054;50.968;5.816;2023-01-13T09:27:01;18.93;;;2.07;;
68993;SDS011;56054;50.968;5.816;2023-01-13T09:30:08;13.60;;;1.93;;
68993;SDS011;56054;50.968;5.816;2023-01-13T09:33:16;10.23;;;1.53;;
68993;SDS011;56054;50.968;5.816;2023-01-13T09:36:23;13.83;;;1.70;;
68993;SDS011;56054;50.968;5.816;2023-01-13T09:39:34;20.27;;;2.27;;
68993;SDS011;56054;50.968;5.816;2023-01-13T09:42:55;13.17;;;2.50;;
68993;SDS011;56054;50.968;5.816;2023-01-13T09:46:13;8.73;;;1.80;;
68993;SDS011;56054;50.968;5.816;2023-01-13T09:52:46;13.33;;;2.23;;
68993;SDS011;56054;50.968;5.816;2023-01-13T09:55:53;19.53;;;2.47;;
68993;SDS011;56054;50.968;5.816;2023-01-13T09:59:01;8.57;;;1.70;;
68993;SDS011;56054;50.968;5.816;2023-01-13T10:05:35;12.30;;;1.47;;
68993;SDS011;56054;50.968;5.816;2023-01-13T10:08:43;18.07;;;3.07;;
68993;SDS011;56054;50.968;5.816;2023-01-13T10:11:52;11.40;;;1.80;;
68993;SDS011;56054;50.968;5.816;2023-01-13T10:15:03;14.43;;;1.83;;
68993;SDS011;56054;50.968;5.816;2023-01-13T10:18:20;9.70;;;1.47;;
68993;SDS011;56054;50.968;5.816;2023-01-13T10:28:21;21.43;;;2.70;;
68993;SDS011;56054;50.968;5.816;2023-01-13T10:31:28;13.40;;;2.20;;
68993;SDS011;56054;50.968;5.816;2023-01-13T10:34:45;12.57;;;2.40;;
68993;SDS011;56054;50.968;5.816;2023-01-13T10:37:55;12.40;;;1.53;;
68993;SDS011;56054;50.968;5.816;2023-01-13T10:41:05;16.50;;;2.33;;
68993;SDS011;56054;50.968;5.816;2023-01-13T10:44:23;7.80;;;1.30;;
68993;SDS011;56054;50.968;5.816;2023-01-13T10:47:33;11.97;;;2.10;;
68993;SDS011;56054;50.968;5.816;2023-01-13T10:50:42;4.43;;;1.33;;
68993;SDS011;56054;50.968;5.816;2023-01-13T10:54:01;16.83;;;1.77;;
68993;SDS011;56054;50.968;5.816;2023-01-13T10:57:24;10.63;;;1.17;;
68993;SDS011;56054;50.968;5.816;2023-01-13T11:00:33;14.70;;;1.87;;
68993;SDS011;56054;50.968;5.816;2023-01-13T11:03:47;19.60;;;2.73;;
68993;SDS011;56054;50.968;5.816;2023-01-13T11:06:54;18.23;;;2.47;;
68993;SDS011;56054;50.968;5.816;2023-01-13T11:10:17;20.27;;;2.27;;
68993;SDS011;56054;50.968;5.816;2023-01-13T11:13:34;13.10;;;2.17;;
68993;SDS011;56054;50.968;5.816;2023-01-13T11:16:48;16.43;;;1.63;;
68993;SDS011;56054;50.968;5.816;2023-01-13T11:23:41;16.60;;;2.53;;
68993;SDS011;56054;50.968;5.816;2023-01-13T11:26:57;11.30;;;1.93;;
68993;SDS011;56054;50.968;5.816;2023-01-13T11:30:37;7.63;;;1.37;;
68993;SDS011;56054;50.968;5.816;2023-01-13T11:33:58;22.87;;;2.17;;
68993;SDS011;56054;50.968;5.816;2023-01-13T11:37:35;14.47;;;2.20;;
68993;SDS011;56054;50.968;5.816;2023-01-13T11:40:45;11.33;;;1.83;;
68993;SDS011;56054;50.968;5.816;2023-01-13T11:47:01;16.00;;;1.50;;
68993;SDS011;56054;50.968;5.816;2023-01-13T11:50:12;10.27;;;1.57;;
68993;SDS011;56054;50.968;5.816;2023-01-13T11:53:37;10.37;;;1.83;;
68993;SDS011;56054;50.968;5.816;2023-01-13T12:04:33;13.07;;;1.93;;
68993;SDS011;56054;50.968;5.816;2023-01-13T12:18:33;15.03;;;2.00;;
68993;SDS011;56054;50.968;5.816;2023-01-13T12:22:02;23.77;;;2.17;;
68993;SDS011;56054;50.968;5.816;2023-01-13T12:25:26;14.07;;;1.70;;
68993;SDS011;56054;50.968;5.816;2023-01-13T12:31:56;9.50;;;1.23;;
68993;SDS011;56054;50.968;5.816;2023-01-13T12:38:56;11.37;;;1.53;;
68993;SDS011;56054;50.968;5.816;2023-01-13T12:42:54;13.77;;;1.40;;
68993;SDS011;56054;50.968;5.816;2023-01-13T12:49:41;8.60;;;1.13;;
68993;SDS011;56054;50.968;5.816;2023-01-13T12:52:58;14.47;;;2.13;;
68993;SDS011;56054;50.968;5.816;2023-01-13T13:00:52;11.03;;;1.73;;
68993;SDS011;56054;50.968;5.816;2023-01-13T13:04:12;11.33;;;1.57;;
68993;SDS011;56054;50.968;5.816;2023-01-13T13:07:25;11.73;;;1.97;;
68993;SDS011;56054;50.968;5.816;2023-01-13T13:10:53;18.73;;;2.27;;
68993;SDS011;56054;50.968;5.816;2023-01-13T13:14:10;12.97;;;2.17;;
68993;SDS011;56054;50.968;5.816;2023-01-13T13:20:55;10.03;;;1.67;;
68993;SDS011;56054;50.968;5.816;2023-01-13T13:24:07;14.83;;;2.47;;
68993;SDS011;56054;50.968;5.816;2023-01-13T13:27:17;11.73;;;2.60;;
68993;SDS011;56054;50.968;5.816;2023-01-13T13:30:33;14.43;;;1.80;;
68993;SDS011;56054;50.968;5.816;2023-01-13T13:33:51;13.73;;;1.87;;
68993;SDS011;56054;50.968;5.816;2023-01-13T13:41:17;8.70;;;1.57;;
68993;SDS011;56054;50.968;5.816;2023-01-13T13:44:33;16.63;;;1.60;;
68993;SDS011;56054;50.968;5.816;2023-01-13T13:47:42;20.63;;;2.67;;
68993;SDS011;56054;50.968;5.816;2023-01-13T13:50:53;28.23;;;3.10;;
68993;SDS011;56054;50.968;5.816;2023-01-13T13:54:02;18.67;;;2.43;;
68993;SDS011;56054;50.968;5.816;2023-01-13T13:57:19;17.53;;;2.40;;
68993;SDS011;56054;50.968;5.816;2023-01-13T14:00:39;12.17;;;1.73;;
68993;SDS011;56054;50.968;5.816;2023-01-13T14:03:46;9.77;;;1.37;;
68993;SDS011;56054;50.968;5.816;2023-01-13T14:07:20;12.00;;;2.00;;
68993;SDS011;56054;50.968;5.816;2023-01-13T14:10:33;15.97;;;2.23;;
68993;SDS011;56054;50.968;5.816;2023-01-13T14:13:42;11.60;;;2.07;;
68993;SDS011;56054;50.968;5.816;2023-01-13T14:16:49;18.80;;;2.30;;
68993;SDS011;56054;50.968;5.816;2023-01-13T14:20:03;17.07;;;2.43;;
68993;SDS011;56054;50.968;5.816;2023-01-13T14:23:24;17.93;;;2.33;;
68993;SDS011;56054;50.968;5.816;2023-01-13T14:26:33;14.07;;;2.27;;
68993;SDS011;56054;50.968;5.816;2023-01-13T14:29:42;15.13;;;2.07;;
68993;SDS011;56054;50.968;5.816;2023-01-13T14:32:50;13.60;;;2.37;;
68993;SDS011;56054;50.968;5.816;2023-01-13T14:36:19;23.47;;;2.20;;
68993;SDS011;56054;50.968;5.816;2023-01-13T14:42:43;10.93;;;2.00;;
68993;SDS011;56054;50.968;5.816;2023-01-13T14:45:55;12.73;;;1.90;;
68993;SDS011;56054;50.968;5.816;2023-01-13T14:49:03;15.13;;;2.13;;
68993;SDS011;56054;50.968;5.816;2023-01-13T14:52:14;21.00;;;2.20;;
68993;SDS011;56054;50.968;5.816;2023-01-13T14:55:32;23.77;;;2.57;;
68993;SDS011;56054;50.968;5.816;2023-01-13T14:58:47;33.33;;;11.43;;
68993;SDS011;56054;50.968;5.816;2023-01-13T15:01:54;14.23;;;3.67;;
68993;SDS011;56054;50.968;5.816;2023-01-13T15:05:44;14.83;;;2.80;;
68993;SDS011;56054;50.968;5.816;2023-01-13T15:08:33;12.50;;;1.93;;
68993;SDS011;56054;50.968;5.816;2023-01-13T15:11:42;20.97;;;3.13;;
68993;SDS011;56054;50.968;5.816;2023-01-13T15:14:49;14.30;;;1.80;;
68993;SDS011;56054;50.968;5.816;2023-01-13T15:17:57;21.33;;;2.30;;
68993;SDS011;56054;50.968;5.816;2023-01-13T15:21:08;19.60;;;2.47;;
68993;SDS011;56054;50.968;5.816;2023-01-13T15:24:16;16.67;;;2.90;;
68993;SDS011;56054;50.968;5.816;2023-01-13T15:27:32;22.27;;;2.33;;
68993;SDS011;56054;50.968;5.816;2023-01-13T15:30:39;20.13;;;2.07;;
68993;SDS011;56054;50.968;5.816;2023-01-13T15:34:12;14.47;;;2.07;;
68993;SDS011;56054;50.968;5.816;2023-01-13T15:37:19;13.47;;;2.23;;
68993;SDS011;56054;50.968;5.816;2023-01-13T15:40:30;17.27;;;2.07;;
68993;SDS011;56054;50.968;5.816;2023-01-13T15:43:38;19.80;;;2.50;;
68993;SDS011;56054;50.968;5.816;2023-01-13T15:46:46;11.63;;;1.80;;
68993;SDS011;56054;50.968;5.816;2023-01-13T15:49:53;14.20;;;2.37;;
68993;SDS011;56054;50.968;5.816;2023-01-13T15:53:02;12.80;;;2.07;;
68993;SDS011;56054;50.968;5.816;2023-01-13T15:56:14;24.07;;;2.07;;
68993;SDS011;56054;50.968;5.816;2023-01-13T15:59:28;14.07;;;1.50;;
68993;SDS011;56054;50.968;5.816;2023-01-13T16:02:35;16.03;;;2.07;;
68993;SDS011;56054;50.968;5.816;2023-01-13T16:05:43;11.47;;;1.50;;
68993;SDS011;56054;50.968;5.816;2023-01-13T16:08:50;10.57;;;2.07;;
68993;SDS011;56054;50.968;5.816;2023-01-13T16:11:57;14.83;;;1.87;;
68993;SDS011;56054;50.968;5.816;2023-01-13T16:15:05;13.80;;;2.30;;
68993;SDS011;56054;50.968;5.816;2023-01-13T16:18:16;12.60;;;1.90;;
68993;SDS011;56054;50.968;5.816;2023-01-13T16:21:25;12.67;;;1.87;;
68993;SDS011;56054;50.968;5.816;2023-01-13T16:24:32;9.73;;;1.67;;
68993;SDS011;56054;50.968;5.816;2023-01-13T16:27:39;10.57;;;1.77;;
68993;SDS011;56054;50.968;5.816;2023-01-13T16:31:16;11.83;;;1.77;;
68993;SDS011;56054;50.968;5.816;2023-01-13T16:34:27;18.90;;;2.07;;
68993;SDS011;56054;50.968;5.816;2023-01-13T16:37:37;13.03;;;1.93;;
68993;SDS011;56054;50.968;5.816;2023-01-13T16:40:44;7.67;;;1.40;;
68993;SDS011;56054;50.968;5.816;2023-01-13T16:43:52;13.33;;;2.07;;
68993;SDS011;56054;50.968;5.816;2023-01-13T16:46:59;14.70;;;1.93;;
68993;SDS011;56054;50.968;5.816;2023-01-13T16:50:09;13.10;;;1.70;;
68993;SDS011;56054;50.968;5.816;2023-01-13T16:53:26;15.10;;;1.97;;
68993;SDS011;56054;50.968;5.816;2023-01-13T16:56:34;9.37;;;1.80;;
68993;SDS011;56054;50.968;5.816;2023-01-13T17:06:43;17.07;;;2.80;;
68993;SDS011;56054;50.968;5.816;2023-01-13T17:13:12;12.97;;;1.50;;
68993;SDS011;56054;50.968;5.816;2023-01-13T17:16:20;9.93;;;1.33;;
68993;SDS011;56054;50.968;5.816;2023-01-13T17:19:32;11.70;;;1.90;;
68993;SDS011;56054;50.968;5.816;2023-01-13T17:22:40;16.30;;;1.70;;
68993;SDS011;56054;50.968;5.816;2023-01-13T17:25:56;7.90;;;1.03;;
68993;SDS011;56054;50.968;5.816;2023-01-13T17:29:09;10.90;;;2.10;;
68993;SDS011;56054;50.968;5.816;2023-01-13T17:32:27;10.33;;;1.57;;
68993;SDS011;56054;50.968;5.816;2023-01-13T17:35:37;14.90;;;2.03;;
68993;SDS011;56054;50.968;5.816;2023-01-13T17:38:44;15.50;;;2.10;;
68993;SDS011;56054;50.968;5.816;2023-01-13T17:41:52;13.13;;;2.53;;
68993;SDS011;56054;50.968;5.816;2023-01-13T17:44:59;17.27;;;2.13;;
68993;SDS011;56054;50.968;5.816;2023-01-13T17:48:06;13.40;;;2.07;;
68993;SDS011;56054;50.968;5.816;2023-01-13T17:51:14;10.70;;;2.60;;
68993;SDS011;56054;50.968;5.816;2023-01-13T17:54:22;13.00;;;1.90;;
68993;SDS011;56054;50.968;5.816;2023-01-13T17:57:33;16.90;;;2.20;;
68993;SDS011;56054;50.968;5.816;2023-01-13T18:00:42;11.63;;;1.97;;
68993;SDS011;56054;50.968;5.816;2023-01-13T18:03:49;6.40;;;1.60;;
68993;SDS011;56054;50.968;5.816;2023-01-13T18:06:56;12.20;;;2.30;;
68993;SDS011;56054;50.968;5.816;2023-01-13T18:10:03;11.23;;;3.13;;
68993;SDS011;56054;50.968;5.816;2023-01-13T18:13:11;18.77;;;2.87;;
68993;SDS011;56054;50.968;5.816;2023-01-13T18:16:22;7.37;;;1.80;;
68993;SDS011;56054;50.968;5.816;2023-01-13T18:19:31;22.60;;;2.23;;
68993;SDS011;56054;50.968;5.816;2023-01-13T18:22:41;19.03;;;2.33;;
68993;SDS011;56054;50.968;5.816;2023-01-13T18:25:51;17.87;;;2.83;;
68993;SDS011;56054;50.968;5.816;2023-01-13T18:28:58;22.63;;;3.67;;
68993;SDS011;56054;50.968;5.816;2023-01-13T18:32:05;12.53;;;2.30;;
68993;SDS011;56054;50.968;5.816;2023-01-13T18:35:13;19.03;;;3.23;;
68993;SDS011;56054;50.968;5.816;2023-01-13T18:38:20;18.67;;;3.10;;
68993;SDS011;56054;50.968;5.816;2023-01-13T18:41:28;14.50;;;2.63;;
68993;SDS011;56054;50.968;5.816;2023-01-13T18:44:35;13.63;;;2.17;;
68993;SDS011;56054;50.968;5.816;2023-01-13T18:47:42;15.00;;;1.93;;
68993;SDS011;56054;50.968;5.816;2023-01-13T18:50:52;16.83;;;2.60;;
68993;SDS011;56054;50.968;5.816;2023-01-13T18:54:26;16.73;;;3.17;;
68993;SDS011;56054;50.968;5.816;2023-01-13T18:57:37;16.80;;;2.07;;
68993;SDS011;56054;50.968;5.816;2023-01-13T19:00:46;16.20;;;2.23;;
68993;SDS011;56054;50.968;5.816;2023-01-13T19:04:00;16.27;;;2.20;;
68993;SDS011;56054;50.968;5.816;2023-01-13T19:07:08;13.90;;;2.27;;
68993;SDS011;56054;50.968;5.816;2023-01-13T19:10:15;18.33;;;2.60;;
68993;SDS011;56054;50.968;5.816;2023-01-13T19:13:23;15.57;;;2.13;;
68993;SDS011;56054;50.968;5.816;2023-01-13T19:16:30;24.90;;;3.27;;
68993;SDS011;56054;50.968;5.816;2023-01-13T19:19:39;18.90;;;2.70;;
68993;SDS011;56054;50.968;5.816;2023-01-13T19:22:52;19.67;;;2.67;;
68993;SDS011;56054;50.968;5.816;2023-01-13T19:26:00;14.60;;;1.83;;
68993;SDS011;56054;50.968;5.816;2023-01-13T19:29:08;21.13;;;2.83;;
68993;SDS011;56054;50.968;5.816;2023-01-13T19:32:16;12.03;;;2.90;;
68993;SDS011;56054;50.968;5.816;2023-01-13T19:35:23;18.47;;;2.67;;
68993;SDS011;56054;50.968;5.816;2023-01-13T19:38:31;21.53;;;2.53;;
68993;SDS011;56054;50.968;5.816;2023-01-13T19:41:42;16.67;;;2.97;;
68993;SDS011;56054;50.968;5.816;2023-01-13T19:44:50;19.00;;;2.87;;
68993;SDS011;56054;50.968;5.816;2023-01-13T19:47:59;24.83;;;3.47;;
68993;SDS011;56054;50.968;5.816;2023-01-13T19:51:06;21.13;;;2.93;;
68993;SDS011;56054;50.968;5.816;2023-01-13T19:54:16;12.47;;;2.40;;
68993;SDS011;56054;50.968;5.816;2023-01-13T19:57:23;19.20;;;3.47;;
68993;SDS011;56054;50.968;5.816;2023-01-13T20:00:30;20.10;;;2.50;;
68993;SDS011;56054;50.968;5.816;2023-01-13T20:03:37;18.33;;;3.13;;
68993;SDS011;56054;50.968;5.816;2023-01-13T20:06:44;19.70;;;2.20;;
68993;SDS011;56054;50.968;5.816;2023-01-13T20:09:52;23.83;;;3.20;;
68993;SDS011;56054;50.968;5.816;2023-01-13T20:12:59;15.97;;;2.33;;
68993;SDS011;56054;50.968;5.816;2023-01-13T20:16:06;16.63;;;2.60;;
68993;SDS011;56054;50.968;5.816;2023-01-13T20:19:14;21.67;;;2.83;;
68993;SDS011;56054;50.968;5.816;2023-01-13T20:22:22;17.07;;;2.53;;
68993;SDS011;56054;50.968;5.816;2023-01-13T20:25:28;19.73;;;3.27;;
68993;SDS011;56054;50.968;5.816;2023-01-13T20:28:35;19.90;;;2.87;;
68993;SDS011;56054;50.968;5.816;2023-01-13T20:31:42;22.43;;;3.13;;
68993;SDS011;56054;50.968;5.816;2023-01-13T20:34:49;16.70;;;2.93;;